BVB weather

Atlas Brasil Cantanhede Airport
Boa Vista, Roraima, Brazil

Public forecast

Using degrees Celsius for public forecast. Weather courtesy of forecast.io.

METAR (pilot weather report)

Retrieved 2019/03/20 13:00 UTC (47 minutes ago):

SBBV 201300Z 07015KT CAVOK 30/19 Q1013

TAF (pilot weather forecast)

Retrieved 2019/03/20 12:33 UTC (1 hour ago):

TAF SBBV 201000Z 2012/2112 09015KT CAVOK TX28/2019Z TN24/2108Z BECMG 2013/2015 06008KT 9999 FEW030 BECMG 2016/2018 09012KT BKN040 BECMG 2021/2023 06008KT CAVOK RMK PFF